Harbor Emperor — WCY6430 — position and weather

sailwx.info

Track history (hours):
 
Tides and Currents Weather Stations Pressure Air Temp Water Temp Dewpoint Dewpoint Depression Visibility Wind Speed Wind Dir Waves Ship Positions

Harbor Emperor

Owner: BLUE & GOLD FLEET, SAN FRANCISCO, CA. More information available from US FCC via Universal Licensing System and Coast Guard Vessel Documentation Center.

Last reported at 2014-Oct-31 21:33 UTC. Time now 2014-Oct-31 22:09 UTC.
Position N 37°49' W 122°25'.

Length 31 m.

Type: Passenger vessel. MMSI: 366985270.

Date/timePositionNaut miles runAvg speedWind from/ knotsBaromVisibWave heightAir tempDewpointWater temp
2014-Oct-31 21:33N 37°49' W 122°25'3 2.9
2014-Oct-31 20:33N 37°49' W 122°28'4 4.1
2014-Oct-31 19:33N 37°48' W 122°23'1 1.4
2014-Oct-31 18:34N 37°49' W 122°25'0 0.2
2014-Oct-31 17:33N 37°49' W 122°25'0 0.0
2014-Oct-31 16:33N 37°49' W 122°25'0 0.0
2014-Oct-31 15:28N 37°49' W 122°25'0 0.0
2014-Oct-31 14:31N 37°49' W 122°25'0 0.0
2014-Oct-31 13:28N 37°49' W 122°25'0 0.0
2014-Oct-31 12:31N 37°49' W 122°25'0 0.0
2014-Oct-31 11:31N 37°49' W 122°25'0 0.0
2014-Oct-31 10:31N 37°49' W 122°25'0 0.0
2014-Oct-31 09:28N 37°49' W 122°25'0 0.0
2014-Oct-31 08:31N 37°49' W 122°25'0 0.0
2014-Oct-31 07:31N 37°49' W 122°25'0 0.0
2014-Oct-31 06:31N 37°49' W 122°25'0 0.0
2014-Oct-31 05:31N 37°49' W 122°25'0 0.0
2014-Oct-31 04:31N 37°49' W 122°25'0 0.0
2014-Oct-31 03:31N 37°49' W 122°25'0 0.0
2014-Oct-31 02:31N 37°49' W 122°25'0 0.0
2014-Oct-31 01:28N 37°49' W 122°25'0 0.0
2014-Oct-31 00:31N 37°49' W 122°25'0 0.3
2014-Oct-30 23:33N 37°49' W 122°25'3 2.6
2014-Oct-30 22:34N 37°49' W 122°28'3 2.6
2014-Oct-30 21:33N 37°49' W 122°25'3 2.7
2014-Oct-30 20:33N 37°49' W 122°28'4 4.0
2014-Oct-30 19:33N 37°48' W 122°23'1 1.4
2014-Oct-30 18:33N 37°49' W 122°25'3 2.6
2014-Oct-30 17:33N 37°49' W 122°28'3 2.6
2014-Oct-30 16:33N 37°49' W 122°25'0 0.0
2014-Oct-30 15:32N 37°49' W 122°25'0 0.0
2014-Oct-30 14:32N 37°49' W 122°25'0 0.0
2014-Oct-30 13:32N 37°49' W 122°25'0 0.0
2014-Oct-30 12:32N 37°49' W 122°25'0 0.0
2014-Oct-30 11:32N 37°49' W 122°25'0 0.0
2014-Oct-30 10:32N 37°49' W 122°25'0 0.0
2014-Oct-30 09:32N 37°49' W 122°25'0 0.0
2014-Oct-30 08:32N 37°49' W 122°25'0 0.0
2014-Oct-30 07:32N 37°49' W 122°25'0 0.0
2014-Oct-30 06:32N 37°49' W 122°25'0 0.0
2014-Oct-30 05:29N 37°49' W 122°25'0 0.0
2014-Oct-30 04:32N 37°49' W 122°25'0 0.0
2014-Oct-30 03:32N 37°49' W 122°25'0 0.0
2014-Oct-30 02:32N 37°49' W 122°25'0 0.0
2014-Oct-30 01:32N 37°49' W 122°25'0 0.0
2014-Oct-30 00:32N 37°49' W 122°25'0 0.2
2014-Oct-29 23:34N 37°49' W 122°25'2 2.5
2014-Oct-29 22:33N 37°49' W 122°28'3 2.6
2014-Oct-29 21:33N 37°49' W 122°25'3 2.7
2014-Oct-29 20:33N 37°49' W 122°28'4 4.0
2014-Oct-29 19:33N 37°48' W 122°23'1 1.5
2014-Oct-29 18:33N 37°49' W 122°25'2 2.2
2014-Oct-29 17:33N 37°49' W 122°27'2 2.2
2014-Oct-29 16:34N 37°49' W 122°25'0 0.0
2014-Oct-29 00:30N 37°49' W 122°25'0 0.1
2014-Oct-28 23:33N 37°49' W 122°25'3 2.5
2014-Oct-28 22:33N 37°49' W 122°28'3 2.6
2014-Oct-28 21:33N 37°49' W 122°25'2 2.2
2014-Oct-28 20:33N 37°49' W 122°27'2 2.1
2014-Oct-28 19:34N 37°49' W 122°25'1 0.9
2014-Oct-28 18:34N 37°49' W 122°25'3 2.7
2014-Oct-28 17:33N 37°49' W 122°28'3 2.7
2014-Oct-28 16:33N 37°49' W 122°25'0 0.0
2014-Oct-28 15:33N 37°49' W 122°25'0 0.0
2014-Oct-28 14:33N 37°49' W 122°25'0 0.0
2014-Oct-28 13:33N 37°49' W 122°25'0 0.0
2014-Oct-28 12:33N 37°49' W 122°25'0 0.0
2014-Oct-28 11:33N 37°49' W 122°25'0 0.0
2014-Oct-28 10:33N 37°49' W 122°25'0 0.0
2014-Oct-28 09:33N 37°49' W 122°25'0 0.0
2014-Oct-28 08:33N 37°49' W 122°25'0 0.0
2014-Oct-28 07:33N 37°49' W 122°25'0 0.0
2014-Oct-28 06:33N 37°49' W 122°25'0 0.0
2014-Oct-28 05:33N 37°49' W 122°25'0 0.0
2014-Oct-28 04:33N 37°49' W 122°25'0 0.0
2014-Oct-28 03:33N 37°49' W 122°25'0 0.0
2014-Oct-28 02:33N 37°49' W 122°25'0 0.0
2014-Oct-28 01:33N 37°49' W 122°25'0 0.0
2014-Oct-28 00:33N 37°49' W 122°25'0 0.1
2014-Oct-27 23:34N 37°49' W 122°25'2 2.2
2014-Oct-27 22:34N 37°49' W 122°27'2 2.2
2014-Oct-27 21:33N 37°49' W 122°25'2 2.4
2014-Oct-27 20:34N 37°49' W 122°28'3 2.6
2014-Oct-27 19:34N 37°49' W 122°24'1 0.7
2014-Oct-27 18:33N 37°49' W 122°25'2 2.1
2014-Oct-27 17:34N 37°49' W 122°27'2 2.1
2014-Oct-27 16:33N 37°49' W 122°25'0 0.0
2014-Oct-27 15:29N 37°49' W 122°25'0 0.0
2014-Oct-27 14:32N 37°49' W 122°25'0 0.0
2014-Oct-27 13:32N 37°49' W 122°25'0 0.0
2014-Oct-27 12:32N 37°49' W 122°25'0 0.0
2014-Oct-27 11:32N 37°49' W 122°25'0 0.0
2014-Oct-27 10:32N 37°49' W 122°25'0 0.0
2014-Oct-27 09:32N 37°49' W 122°25'0 0.0
2014-Oct-27 08:32N 37°49' W 122°25'0 0.0
2014-Oct-27 07:32N 37°49' W 122°25'0 0.0
2014-Oct-27 06:32N 37°49' W 122°25'0 0.0
2014-Oct-27 05:29N 37°49' W 122°25'0 0.0
2014-Oct-27 04:32N 37°49' W 122°25'0 0.0
2014-Oct-27 03:32N 37°49' W 122°25'0 0.0
2014-Oct-27 02:32N 37°49' W 122°25'0 0.0
2014-Oct-27 01:32N 37°49' W 122°25'0 0.0
2014-Oct-27 00:31N 37°49' W 122°25'0 0.2
2014-Oct-26 23:33N 37°49' W 122°25'3 3.0
2014-Oct-26 22:33N 37°49' W 122°28'3 3.0
2014-Oct-26 21:33N 37°49' W 122°25'3 2.8
2014-Oct-26 20:33N 37°49' W 122°28'4 3.7
2014-Oct-26 19:33N 37°48' W 122°23'1 1.0
2014-Oct-26 18:34N 37°49' W 122°25'2 2.5
2014-Oct-26 17:33N 37°49' W 122°28'3 2.5
2014-Oct-26 16:32N 37°49' W 122°25'0 0.0
2014-Oct-26 04:33N 37°49' W 122°25'1 0.6
2014-Oct-26 03:33N 37°49' W 122°25'1 0.6
2014-Oct-26 02:33N 37°49' W 122°25'0 0.1
2014-Oct-26 01:33N 37°49' W 122°25'0 0.0
2014-Oct-26 00:33N 37°49' W 122°25'0 0.1
2014-Oct-25 23:34N 37°49' W 122°25'2 2.4
2014-Oct-25 22:33N 37°49' W 122°28'2 2.5
2014-Oct-25 21:33N 37°49' W 122°25'3 2.5
2014-Oct-25 20:33N 37°49' W 122°28'2 2.5
2014-Oct-25 19:33N 37°49' W 122°25'1 0.9
2014-Oct-25 18:34N 37°49' W 122°25'2 2.0
2014-Oct-25 17:33N 37°49' W 122°27'2 2.0
2014-Oct-25 16:32N 37°49' W 122°25'0 0.0
2014-Oct-25 15:32N 37°49' W 122°25'0 0.0
2014-Oct-25 14:32N 37°49' W 122°25'0 0.0
2014-Oct-25 13:32N 37°49' W 122°25'0 0.0
2014-Oct-25 12:32N 37°49' W 122°25'0 0.0
2014-Oct-25 11:32N 37°49' W 122°25'0 0.0
2014-Oct-25 10:32N 37°49' W 122°25'0 0.0
2014-Oct-25 09:32N 37°49' W 122°25'0 0.0
2014-Oct-25 08:32N 37°49' W 122°25'0 0.0
2014-Oct-25 07:31N 37°49' W 122°25'0 0.0
2014-Oct-25 06:31N 37°49' W 122°25'0 0.0
2014-Oct-25 05:32N 37°49' W 122°25'0 0.0
2014-Oct-25 04:31N 37°49' W 122°25'0 0.0
2014-Oct-25 03:31N 37°49' W 122°25'0 0.0
2014-Oct-25 02:32N 37°49' W 122°25'0 0.0
2014-Oct-25 01:28N 37°49' W 122°25'0 0.0
2014-Oct-25 00:29N 37°49' W 122°25'0 0.1
2014-Oct-24 23:34N 37°49' W 122°25'3 2.9
2014-Oct-24 22:33N 37°49' W 122°28'3 2.9
2014-Oct-24 21:33N 37°49' W 122°25'2 2.3
2014-Oct-24 20:33N 37°49' W 122°28'3 3.0
2014-Oct-24 19:33N 37°49' W 122°24'1 0.8
2014-Oct-24 18:34N 37°49' W 122°25'2 2.2
2014-Oct-24 17:33N 37°49' W 122°27'2 2.3
2014-Oct-24 16:33N 37°49' W 122°25'0 0.0
2014-Oct-24 15:33N 37°49' W 122°25'0 0.0
2014-Oct-24 14:33N 37°49' W 122°25'0 0.0
2014-Oct-24 13:33N 37°49' W 122°25'0 0.0
2014-Oct-24 12:33N 37°49' W 122°25'0 0.0
2014-Oct-24 11:33N 37°49' W 122°25'0 0.0
2014-Oct-24 10:33N 37°49' W 122°25'0 0.0
2014-Oct-24 09:33N 37°49' W 122°25'0 0.0
2014-Oct-24 08:33N 37°49' W 122°25'0 0.0
2014-Oct-24 07:33N 37°49' W 122°25'0 0.0
2014-Oct-24 06:33N 37°49' W 122°25'0 0.0
2014-Oct-24 05:33N 37°49' W 122°25'0 0.0
2014-Oct-24 04:33N 37°49' W 122°25'0 0.0
2014-Oct-24 03:33N 37°49' W 122°25'0 0.0
2014-Oct-24 02:33N 37°49' W 122°25'0 0.0
2014-Oct-24 01:33N 37°49' W 122°25'0 0.0
2014-Oct-24 00:33N 37°49' W 122°25'0 0.0
2014-Oct-23 23:33N 37°49' W 122°25'0 0.3
2014-Oct-23 22:34N 37°49' W 122°24'0 0.3
2014-Oct-23 21:33N 37°49' W 122°25'0 0.4
2014-Oct-23 20:33N 37°49' W 122°24'0 0.4
2014-Oct-23 19:33N 37°49' W 122°25'0 0.0
2014-Oct-23 18:33N 37°49' W 122°25'0 0.0
2014-Oct-23 17:33N 37°49' W 122°25'0 0.0
2014-Oct-23 16:33N 37°49' W 122°25'0 0.0
2014-Oct-23 15:34N 37°49' W 122°25'0 0.0
2014-Oct-23 14:33N 37°49' W 122°25'0 0.0
2014-Oct-23 13:33N 37°49' W 122°25'0 0.0
2014-Oct-23 12:33N 37°49' W 122°25'0 0.0
2014-Oct-23 11:33N 37°49' W 122°25'0 0.0
2014-Oct-23 10:33N 37°49' W 122°25'0 0.0
2014-Oct-23 09:33N 37°49' W 122°25'0 0.0
2014-Oct-23 08:33N 37°49' W 122°25'0 0.0
2014-Oct-23 07:33N 37°49' W 122°25'0 0.0
2014-Oct-23 06:33N 37°49' W 122°25'0 0.0
2014-Oct-23 05:33N 37°49' W 122°25'0 0.0
2014-Oct-23 04:33N 37°49' W 122°25'0 0.0
2014-Oct-23 03:33N 37°49' W 122°25'0 0.0
2014-Oct-23 02:33N 37°49' W 122°25'0 0.0
2014-Oct-23 01:33N 37°49' W 122°25'0 0.0
2014-Oct-23 00:33N 37°49' W 122°25'0 0.0
2014-Oct-22 23:34N 37°49' W 122°25'0 0.0
2014-Oct-22 22:33N 37°49' W 122°25'0 0.0
2014-Oct-22 21:33N 37°49' W 122°25'0 0.0
2014-Oct-22 20:33N 37°49' W 122°25'0 0.0
2014-Oct-22 19:33N 37°49' W 122°25'0 0.0
2014-Oct-22 18:33N 37°49' W 122°25'0 0.0
2014-Oct-22 17:33N 37°49' W 122°25'0 0.0
2014-Oct-22 16:33N 37°49' W 122°25'0 0.0
2014-Oct-22 15:33N 37°49' W 122°25'0 0.0
2014-Oct-22 14:33N 37°49' W 122°25'0 0.0
2014-Oct-22 13:33N 37°49' W 122°25'0 0.0
2014-Oct-22 12:33N 37°49' W 122°25'0 0.0
2014-Oct-22 11:33N 37°49' W 122°25'0 0.0
2014-Oct-22 10:33N 37°49' W 122°25'0 0.0
2014-Oct-22 09:33N 37°49' W 122°25'0 0.0
2014-Oct-22 08:33N 37°49' W 122°25'0 0.0
2014-Oct-22 07:33N 37°49' W 122°25'0 0.0
2014-Oct-22 06:33N 37°49' W 122°25'0 0.0
2014-Oct-22 05:33N 37°49' W 122°25'0 0.0
2014-Oct-22 04:33N 37°49' W 122°25'0 0.0
2014-Oct-22 00:27N 37°49' W 122°25'0 0.1
2014-Oct-21 23:33N 37°49' W 122°25'3 3.2
2014-Oct-21 22:33N 37°49' W 122°29'3 3.3
2014-Oct-21 21:34N 37°49' W 122°25'  
Track history (hours):
 
Tides and Currents Weather Stations Pressure Air Temp Water Temp Dewpoint Dewpoint Depression Visibility Wind Speed Wind Dir Waves Ship Positions

Harbor Emperor

Owner: BLUE & GOLD FLEET, SAN FRANCISCO, CA. More information available from US FCC via Universal Licensing System and Coast Guard Vessel Documentation Center.

Last reported at 2014-Oct-31 21:33 UTC. Time now 2014-Oct-31 22:09 UTC.
Position N 37°49' W 122°25'.

Length 31 m.

Type: Passenger vessel. MMSI: 366985270.

Date/timePositionNaut miles runAvg speedWind from/ knotsBaromVisibWave heightAir tempDewpointWater temp
2014-Oct-31 21:33N 37°49' W 122°25'3 2.9
2014-Oct-31 20:33N 37°49' W 122°28'4 4.1
2014-Oct-31 19:33N 37°48' W 122°23'1 1.4
2014-Oct-31 18:34N 37°49' W 122°25'0 0.2
2014-Oct-31 17:33N 37°49' W 122°25'0 0.0
2014-Oct-31 16:33N 37°49' W 122°25'0 0.0
2014-Oct-31 15:28N 37°49' W 122°25'0 0.0
2014-Oct-31 14:31N 37°49' W 122°25'0 0.0
2014-Oct-31 13:28N 37°49' W 122°25'0 0.0
2014-Oct-31 12:31N 37°49' W 122°25'0 0.0
2014-Oct-31 11:31N 37°49' W 122°25'0 0.0
2014-Oct-31 10:31N 37°49' W 122°25'0 0.0
2014-Oct-31 09:28N 37°49' W 122°25'0 0.0
2014-Oct-31 08:31N 37°49' W 122°25'0 0.0
2014-Oct-31 07:31N 37°49' W 122°25'0 0.0
2014-Oct-31 06:31N 37°49' W 122°25'0 0.0
2014-Oct-31 05:31N 37°49' W 122°25'0 0.0
2014-Oct-31 04:31N 37°49' W 122°25'0 0.0
2014-Oct-31 03:31N 37°49' W 122°25'0 0.0
2014-Oct-31 02:31N 37°49' W 122°25'0 0.0
2014-Oct-31 01:28N 37°49' W 122°25'0 0.0
2014-Oct-31 00:31N 37°49' W 122°25'0 0.3
2014-Oct-30 23:33N 37°49' W 122°25'3 2.6
2014-Oct-30 22:34N 37°49' W 122°28'3 2.6
2014-Oct-30 21:33N 37°49' W 122°25'3 2.7
2014-Oct-30 20:33N 37°49' W 122°28'4 4.0
2014-Oct-30 19:33N 37°48' W 122°23'1 1.4
2014-Oct-30 18:33N 37°49' W 122°25'3 2.6
2014-Oct-30 17:33N 37°49' W 122°28'3 2.6
2014-Oct-30 16:33N 37°49' W 122°25'0 0.0
2014-Oct-30 15:32N 37°49' W 122°25'0 0.0
2014-Oct-30 14:32N 37°49' W 122°25'0 0.0
2014-Oct-30 13:32N 37°49' W 122°25'0 0.0
2014-Oct-30 12:32N 37°49' W 122°25'0 0.0
2014-Oct-30 11:32N 37°49' W 122°25'0 0.0
2014-Oct-30 10:32N 37°49' W 122°25'0 0.0
2014-Oct-30 09:32N 37°49' W 122°25'0 0.0
2014-Oct-30 08:32N 37°49' W 122°25'0 0.0
2014-Oct-30 07:32N 37°49' W 122°25'0 0.0
2014-Oct-30 06:32N 37°49' W 122°25'0 0.0
2014-Oct-30 05:29N 37°49' W 122°25'0 0.0
2014-Oct-30 04:32N 37°49' W 122°25'0 0.0
2014-Oct-30 03:32N 37°49' W 122°25'0 0.0
2014-Oct-30 02:32N 37°49' W 122°25'0 0.0
2014-Oct-30 01:32N 37°49' W 122°25'0 0.0
2014-Oct-30 00:32N 37°49' W 122°25'0 0.2
2014-Oct-29 23:34N 37°49' W 122°25'2 2.5
2014-Oct-29 22:33N 37°49' W 122°28'3 2.6
2014-Oct-29 21:33N 37°49' W 122°25'3 2.7
2014-Oct-29 20:33N 37°49' W 122°28'4 4.0
2014-Oct-29 19:33N 37°48' W 122°23'1 1.5
2014-Oct-29 18:33N 37°49' W 122°25'2 2.2
2014-Oct-29 17:33N 37°49' W 122°27'2 2.2
2014-Oct-29 16:34N 37°49' W 122°25'0 0.0
2014-Oct-29 00:30N 37°49' W 122°25'0 0.1
2014-Oct-28 23:33N 37°49' W 122°25'3 2.5
2014-Oct-28 22:33N 37°49' W 122°28'3 2.6
2014-Oct-28 21:33N 37°49' W 122°25'2 2.2
2014-Oct-28 20:33N 37°49' W 122°27'2 2.1
2014-Oct-28 19:34N 37°49' W 122°25'1 0.9
2014-Oct-28 18:34N 37°49' W 122°25'3 2.7
2014-Oct-28 17:33N 37°49' W 122°28'3 2.7
2014-Oct-28 16:33N 37°49' W 122°25'0 0.0
2014-Oct-28 15:33N 37°49' W 122°25'0 0.0
2014-Oct-28 14:33N 37°49' W 122°25'0 0.0
2014-Oct-28 13:33N 37°49' W 122°25'0 0.0
2014-Oct-28 12:33N 37°49' W 122°25'0 0.0
2014-Oct-28 11:33N 37°49' W 122°25'0 0.0
2014-Oct-28 10:33N 37°49' W 122°25'0 0.0
2014-Oct-28 09:33N 37°49' W 122°25'0 0.0
2014-Oct-28 08:33N 37°49' W 122°25'0 0.0
2014-Oct-28 07:33N 37°49' W 122°25'0 0.0
2014-Oct-28 06:33N 37°49' W 122°25'0 0.0
2014-Oct-28 05:33N 37°49' W 122°25'0 0.0
2014-Oct-28 04:33N 37°49' W 122°25'0 0.0
2014-Oct-28 03:33N 37°49' W 122°25'0 0.0
2014-Oct-28 02:33N 37°49' W 122°25'0 0.0
2014-Oct-28 01:33N 37°49' W 122°25'0 0.0
2014-Oct-28 00:33N 37°49' W 122°25'0 0.1
2014-Oct-27 23:34N 37°49' W 122°25'2 2.2
2014-Oct-27 22:34N 37°49' W 122°27'2 2.2
2014-Oct-27 21:33N 37°49' W 122°25'2 2.4
2014-Oct-27 20:34N 37°49' W 122°28'3 2.6
2014-Oct-27 19:34N 37°49' W 122°24'1 0.7
2014-Oct-27 18:33N 37°49' W 122°25'2 2.1
2014-Oct-27 17:34N 37°49' W 122°27'2 2.1
2014-Oct-27 16:33N 37°49' W 122°25'0 0.0
2014-Oct-27 15:29N 37°49' W 122°25'0 0.0
2014-Oct-27 14:32N 37°49' W 122°25'0 0.0
2014-Oct-27 13:32N 37°49' W 122°25'0 0.0
2014-Oct-27 12:32N 37°49' W 122°25'0 0.0
2014-Oct-27 11:32N 37°49' W 122°25'0 0.0
2014-Oct-27 10:32N 37°49' W 122°25'0 0.0
2014-Oct-27 09:32N 37°49' W 122°25'0 0.0
2014-Oct-27 08:32N 37°49' W 122°25'0 0.0
2014-Oct-27 07:32N 37°49' W 122°25'0 0.0
2014-Oct-27 06:32N 37°49' W 122°25'0 0.0
2014-Oct-27 05:29N 37°49' W 122°25'0 0.0
2014-Oct-27 04:32N 37°49' W 122°25'0 0.0
2014-Oct-27 03:32N 37°49' W 122°25'0 0.0
2014-Oct-27 02:32N 37°49' W 122°25'0 0.0
2014-Oct-27 01:32N 37°49' W 122°25'0 0.0
2014-Oct-27 00:31N 37°49' W 122°25'0 0.2
2014-Oct-26 23:33N 37°49' W 122°25'3 3.0
2014-Oct-26 22:33N 37°49' W 122°28'3 3.0
2014-Oct-26 21:33N 37°49' W 122°25'3 2.8
2014-Oct-26 20:33N 37°49' W 122°28'4 3.7
2014-Oct-26 19:33N 37°48' W 122°23'1 1.0
2014-Oct-26 18:34N 37°49' W 122°25'2 2.5
2014-Oct-26 17:33N 37°49' W 122°28'3 2.5
2014-Oct-26 16:32N 37°49' W 122°25'0 0.0
2014-Oct-26 04:33N 37°49' W 122°25'1 0.6
2014-Oct-26 03:33N 37°49' W 122°25'1 0.6
2014-Oct-26 02:33N 37°49' W 122°25'0 0.1
2014-Oct-26 01:33N 37°49' W 122°25'0 0.0
2014-Oct-26 00:33N 37°49' W 122°25'0 0.1
2014-Oct-25 23:34N 37°49' W 122°25'2 2.4
2014-Oct-25 22:33N 37°49' W 122°28'2 2.5
2014-Oct-25 21:33N 37°49' W 122°25'3 2.5
2014-Oct-25 20:33N 37°49' W 122°28'2 2.5
2014-Oct-25 19:33N 37°49' W 122°25'1 0.9
2014-Oct-25 18:34N 37°49' W 122°25'2 2.0
2014-Oct-25 17:33N 37°49' W 122°27'2 2.0
2014-Oct-25 16:32N 37°49' W 122°25'0 0.0
2014-Oct-25 15:32N 37°49' W 122°25'0 0.0
2014-Oct-25 14:32N 37°49' W 122°25'0 0.0
2014-Oct-25 13:32N 37°49' W 122°25'0 0.0
2014-Oct-25 12:32N 37°49' W 122°25'0 0.0
2014-Oct-25 11:32N 37°49' W 122°25'0 0.0
2014-Oct-25 10:32N 37°49' W 122°25'0 0.0
2014-Oct-25 09:32N 37°49' W 122°25'0 0.0
2014-Oct-25 08:32N 37°49' W 122°25'0 0.0
2014-Oct-25 07:31N 37°49' W 122°25'0 0.0
2014-Oct-25 06:31N 37°49' W 122°25'0 0.0
2014-Oct-25 05:32N 37°49' W 122°25'0 0.0
2014-Oct-25 04:31N 37°49' W 122°25'0 0.0
2014-Oct-25 03:31N 37°49' W 122°25'0 0.0
2014-Oct-25 02:32N 37°49' W 122°25'0 0.0
2014-Oct-25 01:28N 37°49' W 122°25'0 0.0
2014-Oct-25 00:29N 37°49' W 122°25'0 0.1
2014-Oct-24 23:34N 37°49' W 122°25'3 2.9
2014-Oct-24 22:33N 37°49' W 122°28'3 2.9
2014-Oct-24 21:33N 37°49' W 122°25'2 2.3
2014-Oct-24 20:33N 37°49' W 122°28'3 3.0
2014-Oct-24 19:33N 37°49' W 122°24'1 0.8
2014-Oct-24 18:34N 37°49' W 122°25'2 2.2
2014-Oct-24 17:33N 37°49' W 122°27'2 2.3
2014-Oct-24 16:33N 37°49' W 122°25'0 0.0
2014-Oct-24 15:33N 37°49' W 122°25'0 0.0
2014-Oct-24 14:33N 37°49' W 122°25'0 0.0
2014-Oct-24 13:33N 37°49' W 122°25'0 0.0
2014-Oct-24 12:33N 37°49' W 122°25'0 0.0
2014-Oct-24 11:33N 37°49' W 122°25'0 0.0
2014-Oct-24 10:33N 37°49' W 122°25'0 0.0
2014-Oct-24 09:33N 37°49' W 122°25'0 0.0
2014-Oct-24 08:33N 37°49' W 122°25'0 0.0
2014-Oct-24 07:33N 37°49' W 122°25'0 0.0
2014-Oct-24 06:33N 37°49' W 122°25'0 0.0
2014-Oct-24 05:33N 37°49' W 122°25'0 0.0
2014-Oct-24 04:33N 37°49' W 122°25'0 0.0
2014-Oct-24 03:33N 37°49' W 122°25'0 0.0
2014-Oct-24 02:33N 37°49' W 122°25'0 0.0
2014-Oct-24 01:33N 37°49' W 122°25'0 0.0
2014-Oct-24 00:33N 37°49' W 122°25'0 0.0
2014-Oct-23 23:33N 37°49' W 122°25'0 0.3
2014-Oct-23 22:34N 37°49' W 122°24'0 0.3
2014-Oct-23 21:33N 37°49' W 122°25'0 0.4
2014-Oct-23 20:33N 37°49' W 122°24'0 0.4
2014-Oct-23 19:33N 37°49' W 122°25'0 0.0
2014-Oct-23 18:33N 37°49' W 122°25'0 0.0
2014-Oct-23 17:33N 37°49' W 122°25'0 0.0
2014-Oct-23 16:33N 37°49' W 122°25'0 0.0
2014-Oct-23 15:34N 37°49' W 122°25'0 0.0
2014-Oct-23 14:33N 37°49' W 122°25'0 0.0
2014-Oct-23 13:33N 37°49' W 122°25'0 0.0
2014-Oct-23 12:33N 37°49' W 122°25'0 0.0
2014-Oct-23 11:33N 37°49' W 122°25'0 0.0
2014-Oct-23 10:33N 37°49' W 122°25'0 0.0
2014-Oct-23 09:33N 37°49' W 122°25'0 0.0
2014-Oct-23 08:33N 37°49' W 122°25'0 0.0
2014-Oct-23 07:33N 37°49' W 122°25'0 0.0
2014-Oct-23 06:33N 37°49' W 122°25'0 0.0
2014-Oct-23 05:33N 37°49' W 122°25'0 0.0
2014-Oct-23 04:33N 37°49' W 122°25'0 0.0
2014-Oct-23 03:33N 37°49' W 122°25'0 0.0
2014-Oct-23 02:33N 37°49' W 122°25'0 0.0
2014-Oct-23 01:33N 37°49' W 122°25'0 0.0
2014-Oct-23 00:33N 37°49' W 122°25'0 0.0
2014-Oct-22 23:34N 37°49' W 122°25'0 0.0
2014-Oct-22 22:33N 37°49' W 122°25'0 0.0
2014-Oct-22 21:33N 37°49' W 122°25'0 0.0
2014-Oct-22 20:33N 37°49' W 122°25'0 0.0
2014-Oct-22 19:33N 37°49' W 122°25'0 0.0
2014-Oct-22 18:33N 37°49' W 122°25'0 0.0
2014-Oct-22 17:33N 37°49' W 122°25'0 0.0
2014-Oct-22 16:33N 37°49' W 122°25'0 0.0
2014-Oct-22 15:33N 37°49' W 122°25'0 0.0
2014-Oct-22 14:33N 37°49' W 122°25'0 0.0
2014-Oct-22 13:33N 37°49' W 122°25'0 0.0
2014-Oct-22 12:33N 37°49' W 122°25'0 0.0
2014-Oct-22 11:33N 37°49' W 122°25'0 0.0
2014-Oct-22 10:33N 37°49' W 122°25'0 0.0
2014-Oct-22 09:33N 37°49' W 122°25'0 0.0
2014-Oct-22 08:33N 37°49' W 122°25'0 0.0
2014-Oct-22 07:33N 37°49' W 122°25'0 0.0
2014-Oct-22 06:33N 37°49' W 122°25'0 0.0
2014-Oct-22 05:33N 37°49' W 122°25'0 0.0
2014-Oct-22 04:33N 37°49' W 122°25'0 0.0
2014-Oct-22 00:27N 37°49' W 122°25'0 0.1
2014-Oct-21 23:33N 37°49' W 122°25'3 3.2
2014-Oct-21 22:33N 37°49' W 122°29'3 3.3
2014-Oct-21 21:34N 37°49' W 122°25'  

Dump ship's entire track history